createdAt,value
2018-08-19T00:00:52.810Z,26.52
2018-08-19T00:03:05.317Z,26.89
2018-08-19T00:05:16.734Z,26.49
2018-08-19T00:07:22.627Z,26.22
2018-08-19T00:09:28.622Z,26.46
2018-08-19T00:11:35.795Z,26.66
2018-08-19T00:13:42.625Z,26.62
2018-08-19T00:15:48.793Z,26.80
2018-08-19T00:17:57.138Z,26.46
2018-08-19T00:20:06.222Z,26.28
2018-08-19T00:22:12.325Z,26.25
2018-08-19T00:24:19.317Z,26.25
2018-08-19T00:26:23.685Z,25.80
2018-08-19T00:28:27.546Z,26.35
2018-08-19T00:30:35.837Z,26.37
2018-08-19T00:32:49.206Z,25.75
2018-08-19T00:34:56.096Z,25.96
2018-08-19T00:37:03.986Z,26.43
2018-08-19T00:39:12.782Z,26.53
2018-08-19T00:41:17.756Z,25.93
2018-08-19T00:43:21.997Z,25.60
2018-08-19T00:45:26.376Z,25.48
2018-08-19T00:47:30.723Z,25.81
2018-08-19T00:49:34.740Z,25.47
2018-08-19T00:51:43.969Z,25.65
2018-08-19T00:53:47.952Z,25.84
2018-08-19T00:55:51.602Z,25.89
2018-08-19T00:57:58.263Z,25.80
2018-08-19T01:00:02.311Z,25.80
2018-08-19T01:02:11.826Z,25.41
2018-08-19T01:04:23.357Z,25.45
2018-08-19T01:06:27.614Z,25.70
2018-08-19T01:08:31.733Z,25.83
2018-08-19T01:10:36.194Z,25.93
2018-08-19T01:12:41.174Z,26.07
2018-08-19T01:14:44.887Z,25.85
2018-08-19T01:16:48.863Z,25.61
2018-08-19T01:18:57.993Z,25.48
2018-08-19T01:21:14.459Z,25.24
2018-08-19T01:23:22.141Z,25.43
2018-08-19T01:25:27.454Z,25.73
2018-08-19T01:27:31.957Z,25.44
2018-08-19T01:29:45.295Z,25.43
2018-08-19T01:31:49.934Z,25.18
2018-08-19T01:33:54.041Z,25.55
2018-08-19T01:35:58.620Z,25.51
2018-08-19T01:38:02.397Z,25.67
2018-08-19T01:40:10.102Z,25.32
2018-08-19T01:42:19.323Z,25.58
2018-08-19T01:44:27.073Z,25.63
2018-08-19T01:46:40.531Z,25.28
2018-08-19T01:48:44.535Z,25.37
2018-08-19T01:50:48.528Z,25.33
2018-08-19T01:52:52.441Z,24.85
2018-08-19T01:54:56.226Z,25.10
2018-08-19T01:57:01.621Z,24.81
2018-08-19T01:59:05.973Z,24.99
2018-08-19T02:01:10.217Z,24.93
2018-08-19T02:03:17.540Z,25.06
2018-08-19T02:05:25.378Z,25.75
2018-08-19T02:07:32.298Z,25.27
2018-08-19T02:09:42.252Z,25.54
2018-08-19T02:11:47.313Z,25.70
2018-08-19T02:13:52.111Z,25.38
2018-08-19T02:15:59.034Z,25.17
2018-08-19T02:18:04.363Z,25.34
2018-08-19T02:20:08.228Z,25.53
2018-08-19T02:22:12.581Z,25.18
2018-08-19T02:24:18.262Z,25.41
2018-08-19T02:26:30.951Z,25.52
2018-08-19T02:28:34.964Z,25.15
2018-08-19T02:30:49.941Z,25.45
2018-08-19T02:32:54.155Z,25.29
2018-08-19T02:34:57.762Z,25.43
2018-08-19T02:37:17.104Z,25.58
2018-08-19T02:39:25.697Z,25.31
2018-08-19T02:41:31.897Z,25.51
2018-08-19T02:43:48.825Z,25.15
2018-08-19T02:45:52.785Z,25.03
2018-08-19T02:47:57.701Z,25.06
2018-08-19T02:50:03.513Z,25.06
2018-08-19T02:52:13.907Z,25.20
2018-08-19T02:54:19.342Z,25.20
2018-08-19T02:56:23.845Z,25.39
2018-08-19T02:58:27.797Z,25.42
2018-08-19T03:00:31.674Z,25.06
2018-08-19T03:02:37.414Z,24.62
2018-08-19T03:04:41.095Z,24.37
2018-08-19T03:06:44.664Z,24.45
2018-08-19T03:08:54.255Z,24.64
2018-08-19T03:11:03.032Z,24.67
2018-08-19T03:13:11.623Z,24.86
2018-08-19T03:15:16.299Z,24.80
2018-08-19T03:17:20.419Z,24.83
2018-08-19T03:19:24.190Z,24.73
2018-08-19T03:21:27.756Z,24.74
2018-08-19T03:23:31.886Z,24.28
2018-08-19T03:25:35.641Z,24.25
2018-08-19T03:27:39.360Z,24.49
2018-08-19T03:29:49.061Z,24.36
2018-08-19T03:31:58.417Z,24.54
2018-08-19T03:34:02.409Z,24.66
2018-08-19T03:36:06.644Z,24.64
2018-08-19T03:38:13.825Z,24.60
2018-08-19T03:40:17.523Z,24.29
2018-08-19T03:42:21.981Z,24.73
2018-08-19T03:44:25.668Z,24.86
2018-08-19T03:46:29.751Z,24.69
2018-08-19T03:48:38.581Z,25.11
2018-08-19T03:50:44.784Z,24.69
2018-08-19T03:52:50.787Z,24.50
2018-08-19T03:54:54.735Z,24.95
2018-08-19T03:56:58.578Z,24.66
2018-08-19T03:59:06.204Z,24.83
2018-08-19T04:01:09.735Z,25.27
2018-08-19T04:03:20.116Z,25.54
2018-08-19T04:05:42.970Z,25.36
2018-08-19T04:07:54.430Z,24.65
2018-08-19T04:09:59.136Z,24.58
2018-08-19T04:12:11.001Z,24.27
2018-08-19T04:14:26.803Z,24.57
2018-08-19T04:16:31.094Z,23.77
2018-08-19T04:18:46.721Z,24.19
2018-08-19T04:20:54.753Z,24.34
2018-08-19T04:22:58.835Z,24.82
2018-08-19T04:25:02.590Z,24.60
2018-08-19T04:27:07.707Z,24.42
2018-08-19T04:29:16.518Z,24.74
2018-08-19T04:31:23.285Z,24.39
2018-08-19T04:33:32.893Z,24.50
2018-08-19T04:35:37.178Z,24.46
2018-08-19T04:37:45.161Z,24.82
2018-08-19T04:39:51.361Z,24.53
2018-08-19T04:41:56.915Z,24.31
2018-08-19T04:44:00.835Z,24.05
2018-08-19T04:46:04.755Z,23.91
2018-08-19T04:48:08.641Z,24.26
2018-08-19T04:50:12.710Z,24.29
2018-08-19T04:52:20.725Z,24.27
2018-08-19T04:54:24.453Z,24.46
2018-08-19T04:56:28.773Z,24.66
2018-08-19T04:58:32.691Z,24.49
2018-08-19T05:00:36.454Z,24.84
2018-08-19T05:02:40.696Z,24.82
2018-08-19T05:04:44.254Z,25.10
2018-08-19T05:06:51.567Z,25.06
2018-08-19T05:11:06.310Z,24.56
2018-08-19T05:13:17.330Z,24.07
2018-08-19T05:15:21.994Z,24.20
2018-08-19T05:17:25.650Z,24.50
2018-08-19T05:19:29.577Z,24.80
2018-08-19T05:21:33.802Z,24.97
2018-08-19T05:23:38.418Z,24.70
2018-08-19T05:25:48.357Z,24.50
2018-08-19T05:28:00.962Z,24.59
2018-08-19T05:30:08.162Z,24.39
2018-08-19T05:32:14.331Z,24.46
2018-08-19T05:34:23.815Z,24.47
2018-08-19T05:36:31.781Z,24.91
2018-08-19T05:38:35.687Z,24.42
2018-08-19T05:40:47.134Z,24.36
2018-08-19T05:42:56.752Z,24.43
2018-08-19T05:45:04.974Z,24.24
2018-08-19T05:47:11.673Z,24.90
2018-08-19T05:49:15.682Z,24.65
2018-08-19T05:51:19.877Z,24.74
2018-08-19T05:53:29.358Z,25.07
2018-08-19T05:55:33.159Z,24.99
2018-08-19T05:57:36.930Z,25.08
2018-08-19T05:59:40.942Z,25.10
2018-08-19T06:01:44.572Z,25.52
2018-08-19T06:03:48.192Z,25.51
2018-08-19T06:05:53.750Z,25.51
2018-08-19T06:08:05.756Z,25.64
2018-08-19T06:10:09.833Z,25.65
2018-08-19T06:12:13.765Z,25.86
2018-08-19T06:14:17.631Z,25.85
2018-08-19T06:16:21.542Z,25.91
2018-08-19T06:18:27.984Z,25.88
2018-08-19T06:20:35.260Z,25.86
2018-08-19T06:22:41.781Z,25.90
2018-08-19T06:24:46.615Z,25.95
2018-08-19T06:26:50.502Z,25.94
2018-08-19T06:28:54.365Z,25.91
2018-08-19T06:30:58.775Z,26.01
2018-08-19T06:33:02.957Z,26.05
2018-08-19T06:35:07.178Z,26.04
2018-08-19T06:37:11.121Z,26.13
2018-08-19T06:39:15.396Z,25.80
2018-08-19T06:41:19.531Z,25.93
2018-08-19T06:43:23.884Z,26.18
2018-08-19T06:45:28.058Z,26.15
2018-08-19T06:47:36.031Z,26.29
2018-08-19T06:49:46.895Z,26.03
2018-08-19T06:51:51.339Z,25.99
2018-08-19T06:53:55.508Z,26.05
2018-08-19T06:56:00.664Z,25.96
2018-08-19T06:58:04.928Z,25.77
2018-08-19T07:00:14.513Z,26.01
2018-08-19T07:02:19.096Z,26.26
2018-08-19T07:04:23.291Z,26.49
2018-08-19T07:06:27.964Z,26.51
2018-08-19T07:08:33.660Z,26.28
2018-08-19T07:10:45.236Z,26.11
2018-08-19T07:12:56.955Z,26.49
2018-08-19T07:15:04.797Z,26.44
2018-08-19T07:17:10.776Z,26.58
2018-08-19T07:19:17.309Z,26.48
2018-08-19T07:21:27.530Z,26.73
2018-08-19T07:23:35.816Z,26.66
2018-08-19T07:25:46.238Z,26.74
2018-08-19T07:27:58.501Z,26.34
2018-08-19T07:30:06.535Z,26.70
2018-08-19T07:32:15.352Z,26.67
2018-08-19T07:34:25.494Z,26.66
2018-08-19T07:36:30.360Z,26.54
2018-08-19T07:38:40.243Z,26.77
2018-08-19T07:40:52.524Z,26.85
2018-08-19T07:42:57.527Z,26.79
2018-08-19T07:45:04.621Z,26.77
2018-08-19T07:47:11.431Z,26.76
2018-08-19T07:49:22.678Z,26.82
2018-08-19T07:51:26.474Z,26.75
2018-08-19T07:53:30.656Z,26.94
2018-08-19T07:55:34.787Z,27.08
2018-08-19T07:57:48.870Z,26.85
2018-08-19T07:59:57.348Z,26.72
2018-08-19T08:02:02.458Z,26.73
2018-08-19T08:04:17.838Z,26.98
2018-08-19T08:06:24.030Z,26.93
2018-08-19T08:08:28.283Z,26.85
2018-08-19T08:10:32.377Z,26.89
2018-08-19T08:12:36.244Z,26.90
2018-08-19T08:14:45.360Z,26.94
2018-08-19T08:16:55.946Z,27.12
2018-08-19T08:19:01.517Z,27.01
2018-08-19T08:21:15.511Z,27.08
2018-08-19T08:23:22.660Z,26.94
2018-08-19T08:25:26.972Z,27.13
2018-08-19T08:27:31.867Z,27.15
2018-08-19T08:29:37.047Z,27.27
2018-08-19T08:31:47.566Z,27.26
2018-08-19T08:33:56.166Z,27.31
2018-08-19T08:36:03.303Z,27.18
2018-08-19T08:38:09.089Z,27.19
2018-08-19T08:40:13.498Z,27.21
2018-08-19T08:42:17.177Z,27.47
2018-08-19T08:44:21.680Z,27.55
2018-08-19T08:46:26.965Z,27.49
2018-08-19T08:48:32.567Z,27.34
2018-08-19T08:50:37.582Z,27.51
2018-08-19T08:52:44.015Z,27.47
2018-08-19T08:54:58.181Z,27.58
2018-08-19T08:57:07.318Z,27.50
2018-08-19T08:59:14.312Z,27.33
2018-08-19T09:01:18.583Z,27.49
2018-08-19T09:03:23.092Z,27.57
2018-08-19T09:05:27.487Z,27.65
2018-08-19T09:07:31.183Z,27.70
2018-08-19T09:09:36.672Z,27.71
2018-08-19T09:11:40.410Z,27.71
2018-08-19T09:13:46.687Z,27.45
2018-08-19T09:15:51.089Z,27.61
2018-08-19T09:17:54.962Z,27.74
2018-08-19T09:19:59.159Z,27.64
2018-08-19T09:22:06.421Z,27.78
2018-08-19T09:24:12.617Z,27.84
2018-08-19T09:26:17.247Z,27.89
2018-08-19T09:28:25.756Z,27.92
2018-08-19T09:30:42.482Z,27.95
2018-08-19T09:32:58.515Z,27.96
2018-08-19T09:35:06.784Z,28.00
2018-08-19T09:37:13.169Z,28.02
2018-08-19T09:39:17.920Z,27.98
2018-08-19T09:41:22.797Z,27.98
2018-08-19T09:43:27.932Z,27.95
2018-08-19T09:45:39.606Z,27.91
2018-08-19T09:47:45.746Z,27.95
2018-08-19T09:49:50.277Z,27.96
2018-08-19T09:51:55.288Z,27.97
2018-08-19T09:54:26.363Z,27.91
2018-08-19T09:56:37.753Z,27.93
2018-08-19T09:58:49.220Z,28.03
2018-08-19T10:01:00.358Z,28.06
2018-08-19T10:03:04.944Z,28.08
2018-08-19T10:05:13.841Z,28.06
2018-08-19T10:07:19.434Z,28.13
2018-08-19T10:09:23.443Z,28.19
2018-08-19T10:11:28.809Z,28.19
2018-08-19T10:13:33.890Z,28.09
2018-08-19T10:15:43.295Z,28.13
2018-08-19T10:17:50.692Z,28.20
2018-08-19T10:19:57.088Z,28.23
2018-08-19T10:22:03.083Z,28.25
2018-08-19T10:24:23.850Z,28.28
2018-08-19T10:26:29.316Z,28.32
2018-08-19T10:28:34.092Z,28.32
2018-08-19T10:30:48.515Z,28.34
2018-08-19T10:33:04.140Z,28.35
2018-08-19T10:35:18.340Z,28.39
2018-08-19T10:37:23.593Z,28.40
2018-08-19T10:39:28.521Z,28.40
2018-08-19T10:41:34.357Z,28.39
2018-08-19T10:43:38.494Z,28.40
2018-08-19T10:45:51.073Z,28.42
2018-08-19T10:48:01.436Z,28.39
2018-08-19T10:50:10.139Z,28.42
2018-08-19T10:52:21.397Z,28.47
2018-08-19T10:54:26.197Z,28.49
2018-08-19T10:56:31.134Z,28.46
2018-08-19T10:58:37.889Z,28.52
2018-08-19T11:00:50.911Z,28.52
2018-08-19T11:03:01.364Z,28.54
2018-08-19T11:05:06.419Z,28.53
2018-08-19T11:07:11.711Z,28.51
2018-08-19T11:09:16.863Z,28.55
2018-08-19T11:11:21.710Z,28.58
2018-08-19T11:13:26.984Z,28.57
2018-08-19T11:15:44.142Z,28.59
2018-08-19T11:17:51.982Z,28.56
2018-08-19T11:20:00.400Z,28.56
2018-08-19T11:22:05.691Z,28.54
2018-08-19T11:24:21.122Z,28.62
2018-08-19T11:28:38.995Z,28.64
2018-08-19T11:30:44.533Z,28.70
2018-08-19T11:32:51.982Z,28.72
2018-08-19T11:35:03.740Z,28.74
2018-08-19T11:37:10.969Z,28.73
2018-08-19T11:39:17.197Z,28.70
2018-08-19T11:41:25.918Z,28.75
2018-08-19T11:43:39.033Z,28.78
2018-08-19T11:45:45.223Z,28.78
2018-08-19T11:47:58.740Z,28.78
2018-08-19T11:52:24.282Z,28.84
2018-08-19T11:54:30.498Z,28.85
2018-08-19T11:56:35.921Z,28.88
2018-08-19T11:58:48.267Z,28.84
2018-08-19T12:00:58.472Z,28.84
2018-08-19T12:03:04.153Z,28.93
2018-08-19T12:05:13.204Z,29.00
2018-08-19T12:07:18.801Z,29.01
2018-08-19T12:09:24.532Z,29.04
2018-08-19T12:11:38.957Z,29.07
2018-08-19T12:13:45.273Z,29.78
2018-08-19T12:15:50.025Z,32.35
2018-08-19T12:17:54.553Z,33.45
2018-08-19T12:20:04.349Z,33.89
2018-08-19T12:22:09.716Z,34.42
2018-08-19T12:24:42.360Z,34.82
2018-08-19T12:26:48.260Z,34.97
2018-08-19T12:28:52.902Z,35.34
2018-08-19T12:30:56.841Z,35.64
2018-08-19T12:33:11.607Z,35.76
2018-08-19T12:35:17.160Z,36.11
2018-08-19T12:37:22.791Z,36.21
2018-08-19T12:39:26.839Z,36.36
2018-08-19T12:41:35.686Z,36.38
2018-08-19T12:43:47.930Z,36.63
2018-08-19T12:45:53.031Z,36.88
2018-08-19T12:47:57.892Z,37.13
2018-08-19T12:50:05.080Z,37.37
2018-08-19T12:52:10.136Z,37.44
2018-08-19T12:54:14.941Z,37.44
2018-08-19T12:56:19.701Z,37.54
2018-08-19T12:58:26.352Z,37.74
2018-08-19T13:00:31.305Z,37.77
2018-08-19T13:02:41.444Z,37.89
2018-08-19T13:04:46.664Z,37.80
2018-08-19T13:07:10.685Z,37.78
2018-08-19T13:09:15.662Z,37.92
2018-08-19T13:11:21.865Z,38.01
2018-08-19T13:13:26.130Z,38.27
2018-08-19T13:15:33.597Z,38.15
2018-08-19T13:17:37.858Z,38.21
2018-08-19T13:19:47.905Z,37.91
2018-08-19T13:21:52.950Z,38.17
2018-08-19T13:23:57.628Z,38.10
2018-08-19T13:26:03.346Z,37.99
2018-08-19T13:28:07.862Z,37.90
2018-08-19T13:30:14.723Z,37.65
2018-08-19T13:32:18.943Z,37.50
2018-08-19T13:34:24.608Z,37.44
2018-08-19T13:36:28.533Z,37.23
2018-08-19T13:38:38.753Z,37.08
2018-08-19T13:40:44.327Z,36.74
2018-08-19T13:42:56.448Z,36.41
2018-08-19T13:45:10.702Z,35.95
2018-08-19T13:47:14.360Z,35.60
2018-08-19T13:49:23.001Z,35.14
2018-08-19T13:51:27.486Z,34.69
2018-08-19T13:53:31.213Z,34.44
2018-08-19T13:55:35.115Z,34.21
2018-08-19T13:57:39.491Z,34.03
2018-08-19T13:59:47.604Z,33.78
2018-08-19T14:01:57.084Z,33.59
2018-08-19T14:04:03.746Z,33.53
2018-08-19T14:06:09.128Z,33.50
2018-08-19T14:10:22.497Z,33.46
2018-08-19T14:12:27.582Z,33.49
2018-08-19T14:14:33.234Z,33.41
2018-08-19T14:16:37.918Z,33.44
2018-08-19T14:18:41.816Z,33.37
2018-08-19T14:20:46.471Z,33.41
2018-08-19T14:22:55.815Z,33.36
2018-08-19T14:25:01.123Z,33.39
2018-08-19T14:27:08.808Z,33.35
2018-08-19T14:29:12.730Z,33.32
2018-08-19T14:31:22.068Z,33.40
2018-08-19T14:33:26.641Z,33.36
2018-08-19T14:35:31.706Z,33.32
2018-08-19T14:37:35.713Z,33.16
2018-08-19T14:39:39.657Z,33.29
2018-08-19T14:41:43.961Z,33.23
2018-08-19T14:44:04.774Z,33.27
2018-08-19T14:46:12.241Z,33.28
2018-08-19T14:48:16.261Z,33.30
2018-08-19T14:50:21.018Z,33.33
2018-08-19T14:52:27.393Z,33.32
2018-08-19T14:54:32.771Z,33.32
2018-08-19T14:56:36.600Z,33.26
2018-08-19T14:58:40.708Z,33.26
2018-08-19T15:00:47.091Z,33.26
2018-08-19T15:02:51.845Z,33.19
2018-08-19T15:04:56.102Z,33.16
2018-08-19T15:07:00.815Z,33.11
2018-08-19T15:09:09.271Z,33.20
2018-08-19T15:11:13.426Z,33.19
2018-08-19T15:13:21.774Z,33.12
2018-08-19T15:15:27.093Z,33.17
2018-08-19T15:17:36.383Z,33.16
2018-08-19T15:19:52.126Z,33.24
2018-08-19T15:21:58.076Z,33.19
2018-08-19T15:24:03.321Z,33.21
2018-08-19T15:26:08.438Z,33.23
2018-08-19T15:28:13.130Z,33.21
2018-08-19T15:30:21.485Z,33.21
2018-08-19T15:32:26.098Z,33.27
2018-08-19T15:34:32.368Z,33.18
2018-08-19T15:36:40.171Z,33.09
2018-08-19T15:39:12.239Z,33.12
2018-08-19T15:41:17.920Z,33.06
2018-08-19T15:43:21.787Z,33.08
2018-08-19T15:45:28.714Z,33.18
2018-08-19T15:47:35.119Z,33.12
2018-08-19T15:49:43.664Z,33.12
2018-08-19T15:51:50.338Z,33.05
2018-08-19T15:53:54.402Z,33.10
2018-08-19T15:55:58.339Z,33.11
2018-08-19T15:58:04.251Z,33.03
2018-08-19T16:00:09.762Z,33.06
2018-08-19T16:02:14.103Z,33.05
2018-08-19T16:04:19.953Z,33.00
2018-08-19T16:06:24.504Z,33.08
2018-08-19T16:08:31.632Z,33.08
2018-08-19T16:10:35.308Z,33.05
2018-08-19T16:12:45.814Z,33.06
2018-08-19T16:14:54.215Z,33.00
2018-08-19T16:17:02.406Z,32.97
2018-08-19T16:19:08.413Z,33.05
2018-08-19T16:21:14.160Z,32.95
2018-08-19T16:23:19.421Z,32.86
2018-08-19T16:25:24.444Z,32.94
2018-08-19T16:27:28.923Z,32.89
2018-08-19T16:29:33.424Z,32.87
2018-08-19T16:31:37.271Z,32.91
2018-08-19T16:33:41.718Z,32.92
2018-08-19T16:35:49.052Z,32.89
2018-08-19T16:37:57.979Z,32.83
2018-08-19T16:40:02.556Z,32.84
2018-08-19T16:42:06.767Z,32.88
2018-08-19T16:44:11.045Z,32.87
2018-08-19T16:46:15.120Z,32.79
2018-08-19T16:48:20.280Z,32.78
2018-08-19T16:50:25.103Z,32.80
2018-08-19T16:52:32.210Z,32.77
2018-08-19T16:54:39.098Z,32.71
2018-08-19T16:56:50.552Z,32.81
2018-08-19T16:59:04.663Z,32.78
2018-08-19T17:01:09.463Z,32.80
2018-08-19T17:03:26.431Z,32.75
2018-08-19T17:05:36.787Z,32.62
2018-08-19T17:07:41.519Z,32.57
2018-08-19T17:09:45.420Z,32.54
2018-08-19T17:11:53.974Z,32.51
2018-08-19T17:14:03.466Z,32.47
2018-08-19T17:16:10.610Z,32.43
2018-08-19T17:18:17.848Z,32.34
2018-08-19T17:20:25.278Z,32.34
2018-08-19T17:22:30.413Z,32.36
2018-08-19T17:24:34.658Z,32.34
2018-08-19T17:26:43.976Z,32.26
2018-08-19T17:28:49.755Z,32.28
2018-08-19T17:30:57.359Z,32.27
2018-08-19T17:33:11.351Z,32.13
2018-08-19T17:35:20.694Z,32.01
2018-08-19T17:37:24.733Z,32.03
2018-08-19T17:39:31.563Z,31.92
2018-08-19T17:41:35.770Z,31.94
2018-08-19T17:43:42.965Z,31.78
2018-08-19T17:45:50.244Z,31.77
2018-08-19T17:47:56.064Z,31.60
2018-08-19T17:50:03.865Z,31.59
2018-08-19T17:52:09.546Z,31.55
2018-08-19T17:54:19.087Z,31.48
2018-08-19T17:56:30.748Z,31.42
2018-08-19T17:58:37.335Z,31.40
2018-08-19T18:00:42.814Z,31.37
2018-08-19T18:02:46.860Z,31.29
2018-08-19T18:04:50.928Z,31.28
2018-08-19T18:06:54.974Z,31.17
2018-08-19T18:08:58.521Z,31.13
2018-08-19T18:11:02.660Z,31.11
2018-08-19T18:13:07.976Z,31.04
2018-08-19T18:15:13.954Z,30.97
2018-08-19T18:17:18.216Z,30.90
2018-08-19T18:19:23.973Z,30.85
2018-08-19T18:21:30.586Z,30.73
2018-08-19T18:23:38.845Z,30.69
2018-08-19T18:25:49.207Z,30.64
2018-08-19T18:27:55.622Z,30.58
2018-08-19T18:30:03.699Z,30.56
2018-08-19T18:32:10.889Z,30.49
2018-08-19T18:34:17.137Z,30.44
2018-08-19T18:36:25.027Z,30.37
2018-08-19T18:38:32.011Z,30.35
2018-08-19T18:40:39.913Z,30.30
2018-08-19T18:42:49.715Z,30.25
2018-08-19T18:44:59.083Z,30.22
2018-08-19T18:47:05.390Z,30.15
2018-08-19T18:49:15.887Z,30.14
2018-08-19T18:51:21.812Z,30.06
2018-08-19T18:53:27.164Z,30.04
2018-08-19T18:55:34.679Z,29.99
2018-08-19T18:57:48.227Z,29.90
2018-08-19T18:59:55.966Z,29.91
2018-08-19T19:02:05.770Z,29.86
2018-08-19T19:04:12.157Z,29.79
2018-08-19T19:06:17.475Z,29.77
2018-08-19T19:08:26.505Z,29.67
2018-08-19T19:10:31.593Z,29.69
2018-08-19T19:12:37.520Z,29.65
2018-08-19T19:14:46.620Z,29.67
2018-08-19T19:17:01.653Z,29.59
2018-08-19T19:19:09.081Z,29.59
2018-08-19T19:21:27.315Z,29.54
2018-08-19T19:23:37.428Z,29.52
2018-08-19T19:25:46.435Z,29.50
2018-08-19T19:28:01.849Z,29.47
2018-08-19T19:30:17.643Z,29.39
2018-08-19T19:32:31.916Z,29.41
2018-08-19T19:34:39.182Z,29.37
2018-08-19T19:39:05.981Z,29.35
2018-08-19T19:41:13.983Z,29.32
2018-08-19T19:43:21.683Z,29.26
2018-08-19T19:45:30.739Z,29.23
2018-08-19T19:47:37.270Z,29.25
2018-08-19T19:50:02.015Z,29.17
2018-08-19T19:52:10.851Z,29.14
2018-08-19T19:54:16.447Z,29.12
2018-08-19T19:56:29.964Z,29.14
2018-08-19T19:58:36.756Z,29.09
2018-08-19T20:00:57.403Z,29.02
2018-08-19T20:03:14.536Z,29.01
2018-08-19T20:05:24.935Z,29.03
2018-08-19T20:07:30.710Z,29.03
2018-08-19T20:09:39.362Z,29.00
2018-08-19T20:11:47.951Z,28.95
2018-08-19T20:13:57.061Z,28.95
2018-08-19T20:16:07.027Z,28.94
2018-08-19T20:18:22.535Z,28.95
2018-08-19T20:20:33.698Z,28.95
2018-08-19T20:22:40.848Z,28.91
2018-08-19T20:24:46.032Z,28.89
2018-08-19T20:26:53.561Z,28.88
2018-08-19T20:29:07.663Z,28.86
2018-08-19T20:31:14.311Z,28.78
2018-08-19T20:33:35.088Z,28.77
2018-08-19T20:35:42.891Z,28.70
2018-08-19T20:37:48.651Z,28.61
2018-08-19T20:39:55.392Z,28.68
2018-08-19T20:42:09.636Z,28.69
2018-08-19T20:44:14.293Z,28.67
2018-08-19T20:46:18.602Z,28.69
2018-08-19T20:48:23.791Z,28.68
2018-08-19T20:50:33.998Z,28.65
2018-08-19T20:52:45.486Z,28.62
2018-08-19T20:54:50.721Z,28.60
2018-08-19T20:57:03.335Z,28.61
2018-08-19T20:59:15.422Z,28.56
2018-08-19T21:01:25.528Z,28.45
2018-08-19T21:03:29.558Z,28.53
2018-08-19T21:05:37.893Z,28.44
2018-08-19T21:07:48.502Z,28.44
2018-08-19T21:09:52.578Z,28.45
2018-08-19T21:11:56.704Z,28.40
2018-08-19T21:14:00.642Z,28.39
2018-08-19T21:16:04.250Z,28.39
2018-08-19T21:18:09.287Z,28.37
2018-08-19T21:20:13.222Z,28.29
2018-08-19T21:22:17.541Z,28.31
2018-08-19T21:24:21.811Z,28.28
2018-08-19T21:26:25.678Z,28.24
2018-08-19T21:28:29.277Z,28.25
2018-08-19T21:30:35.419Z,28.26
2018-08-19T21:32:42.817Z,28.24
2018-08-19T21:34:49.225Z,28.19
2018-08-19T21:36:54.547Z,28.19
2018-08-19T21:38:58.577Z,28.12
2018-08-19T21:41:03.012Z,28.07
2018-08-19T21:43:09.422Z,28.08
2018-08-19T21:45:13.606Z,28.06
2018-08-19T21:47:20.090Z,28.03
2018-08-19T21:49:24.369Z,27.97
2018-08-19T21:51:29.201Z,27.70
2018-08-19T21:53:32.969Z,27.50
2018-08-19T21:55:41.600Z,27.46
2018-08-19T21:57:49.818Z,27.35
2018-08-19T21:59:58.053Z,27.32
2018-08-19T22:02:02.268Z,27.13
2018-08-19T22:04:06.843Z,27.28
2018-08-19T22:06:10.714Z,27.26
2018-08-19T22:08:19.376Z,26.98
2018-08-19T22:10:23.283Z,26.83
2018-08-19T22:12:28.515Z,26.97
2018-08-19T22:14:44.340Z,26.97
2018-08-19T22:16:52.921Z,26.83
2018-08-19T22:19:00.579Z,26.79
2018-08-19T22:21:23.063Z,26.87
2018-08-19T22:23:32.493Z,27.15
2018-08-19T22:25:36.566Z,27.36
2018-08-19T22:27:40.193Z,27.42
2018-08-19T22:29:46.726Z,27.33
2018-08-19T22:31:53.898Z,27.44
2018-08-19T22:33:59.993Z,27.52
2018-08-19T22:36:05.062Z,27.60
2018-08-19T22:38:15.786Z,27.61
2018-08-19T22:40:25.186Z,27.70
2018-08-19T22:42:29.067Z,27.55
2018-08-19T22:44:32.818Z,27.69
2018-08-19T22:46:37.774Z,27.42
2018-08-19T22:48:44.450Z,27.48
2018-08-19T22:50:54.328Z,27.61
2018-08-19T22:52:59.687Z,27.55
2018-08-19T22:55:06.545Z,27.65
2018-08-19T22:57:10.225Z,27.68
2018-08-19T22:59:14.521Z,27.51
2018-08-19T23:01:18.343Z,26.95
2018-08-19T23:03:21.936Z,26.85
2018-08-19T23:05:26.462Z,26.79
2018-08-19T23:07:31.727Z,27.05
2018-08-19T23:09:35.537Z,26.96
2018-08-19T23:11:45.294Z,26.82
2018-08-19T23:14:01.320Z,26.96
2018-08-19T23:16:10.211Z,26.74
2018-08-19T23:18:13.873Z,26.51
2018-08-19T23:20:17.470Z,26.50
2018-08-19T23:22:21.562Z,26.48
2018-08-19T23:24:26.226Z,26.29
2018-08-19T23:26:29.740Z,26.30
2018-08-19T23:28:33.621Z,26.39
2018-08-19T23:30:37.453Z,26.53
2018-08-19T23:32:45.930Z,26.37
2018-08-19T23:34:49.547Z,26.32
2018-08-19T23:36:58.446Z,26.38
2018-08-19T23:39:07.295Z,26.38
2018-08-19T23:41:12.391Z,26.29
2018-08-19T23:43:16.887Z,26.33
2018-08-19T23:45:20.628Z,26.34
2018-08-19T23:47:24.310Z,26.38
2018-08-19T23:49:28.238Z,26.52
2018-08-19T23:51:32.195Z,26.65
2018-08-19T23:53:35.748Z,26.69
2018-08-19T23:55:43.211Z,26.62
2018-08-19T23:57:47.182Z,26.82
2018-08-19T23:59:51.042Z,26.99
